Time;durP1;ratioP1;P1;durP2;ratioP2;P2;SDS_P1;SDS_P2;PMS_P1;PMS_P2;Temp;Humidity;BMP_temperature;BMP_pressure;BME280_temperature;BME280_humidity;BME280_pressure;Samples;Min_cycle;Max_cycle;Signal;HPM_P1;HPM_P2
2022/08/31 00:07:05;;;;;;;7.07;1.48;;;;;;;;;;10399576;28;20124;-48
2022/08/31 00:12:06;;;;;;;6.60;1.50;;;;;;;;;;10412321;28;20037;-49
2022/08/31 00:17:07;;;;;;;3.45;1.52;;;;;;;;;;10411981;28;20269;-49
2022/08/31 00:22:07;;;;;;;3.92;1.70;;;;;;;;;;10411642;28;20038;-48
2022/08/31 00:27:08;;;;;;;4.43;1.63;;;;;;;;;;10410972;28;20120;-49
2022/08/31 00:32:08;;;;;;;2.30;1.30;;;;;;;;;;10400020;28;20030;-49
2022/08/31 00:37:09;;;;;;;1.80;1.40;;;;;;;;;;10409495;28;20496;-48
2022/08/31 00:42:11;;;;;;;3.45;1.60;;;;;;;;;;10410392;28;20478;-49
2022/08/31 00:47:11;;;;;;;1.30;1.20;;;;;;;;;;10410593;28;20029;-48
2022/08/31 00:52:19;;;;;;;6.45;1.63;;;;;;;;;;10395403;28;20037;-50
2022/08/31 00:57:21;;;;;;;1.90;1.40;;;;;;;;;;10385032;28;20541;-50
2022/08/31 01:02:22;;;;;;;2.38;1.40;;;;;;;;;;10395729;28;20033;-48
2022/08/31 01:07:22;;;;;;;2.58;1.40;;;;;;;;;;10404245;28;20442;-48
2022/08/31 01:12:25;;;;;;;4.40;1.52;;;;;;;;;;10409703;28;20044;-48
2022/08/31 01:17:26;;;;;;;2.75;1.45;;;;;;;;;;10409143;28;20041;-48
2022/08/31 01:22:36;;;;;;;3.13;1.60;;;;;;;;;;10409360;28;20037;-50
2022/08/31 01:27:37;;;;;;;6.07;1.40;;;;;;;;;;10391942;28;20108;-51
2022/08/31 01:32:38;;;;;;;7.03;1.40;;;;;;;;;;10407255;28;20022;-50
2022/08/31 01:37:39;;;;;;;2.33;1.40;;;;;;;;;;10409045;28;20504;-49
2022/08/31 01:42:40;;;;;;;3.13;1.48;;;;;;;;;;10408065;28;20025;-50
2022/08/31 01:47:40;;;;;;;1.42;1.10;;;;;;;;;;10407835;28;20473;-50
2022/08/31 01:52:41;;;;;;;1.55;1.25;;;;;;;;;;10408567;28;20373;-49
2022/08/31 01:57:41;;;;;;;1.98;1.30;;;;;;;;;;10407658;28;20030;-51
2022/08/31 02:02:42;;;;;;;10.73;1.50;;;;;;;;;;10404886;28;20060;-51
2022/08/31 02:07:42;;;;;;;1.88;1.20;;;;;;;;;;10406858;28;20493;-51
2022/08/31 02:12:43;;;;;;;2.53;1.40;;;;;;;;;;10406526;28;20036;-49
2022/08/31 02:17:44;;;;;;;2.28;1.30;;;;;;;;;;10406991;28;20033;-48
2022/08/31 02:22:47;;;;;;;1.38;1.20;;;;;;;;;;10406867;28;20044;-49
2022/08/31 02:27:47;;;;;;;3.22;1.30;;;;;;;;;;10405777;28;20045;-48
2022/08/31 02:32:48;;;;;;;3.25;1.70;;;;;;;;;;10405963;28;20416;-49
2022/08/31 02:37:49;;;;;;;4.15;1.35;;;;;;;;;;10407392;28;20025;-51
2022/08/31 02:42:49;;;;;;;3.72;1.58;;;;;;;;;;10406413;28;20124;-48
2022/08/31 02:47:50;;;;;;;1.85;1.55;;;;;;;;;;10406388;28;20470;-47
2022/08/31 02:52:54;;;;;;;1.73;1.25;;;;;;;;;;10405450;28;20077;-51
2022/08/31 02:57:54;;;;;;;1.42;1.33;;;;;;;;;;10404547;28;20055;-49
2022/08/31 03:02:55;;;;;;;1.52;1.20;;;;;;;;;;10417458;28;20183;-50
2022/08/31 03:07:56;;;;;;;4.68;1.58;;;;;;;;;;10415499;22;20058;-58
2022/08/31 03:12:57;;;;;;;1.05;1.00;;;;;;;;;;10373125;28;20386;-58
2022/08/31 03:17:57;;;;;;;1.20;1.10;;;;;;;;;;10385986;28;20032;-58
2022/08/31 03:22:58;;;;;;;2.38;1.20;;;;;;;;;;10399911;28;20078;-58
2022/08/31 03:27:59;;;;;;;1.30;1.10;;;;;;;;;;10373992;28;20470;-58
2022/08/31 03:32:59;;;;;;;1.15;1.10;;;;;;;;;;10384822;28;20555;-58
2022/08/31 03:38:01;;;;;;;2.25;1.20;;;;;;;;;;10367709;28;20038;-58
2022/08/31 03:43:02;;;;;;;1.77;1.10;;;;;;;;;;10379246;28;20045;-58
2022/08/31 03:48:05;;;;;;;1.48;1.20;;;;;;;;;;10344321;28;20437;-57
2022/08/31 03:53:07;;;;;;;2.83;1.02;;;;;;;;;;10356024;28;20095;-49
2022/08/31 03:58:09;;;;;;;1.35;1.10;;;;;;;;;;10369692;28;20113;-56
2022/08/31 04:03:10;;;;;;;1.05;0.95;;;;;;;;;;10398929;28;20026;-58
2022/08/31 04:08:11;;;;;;;2.22;1.15;;;;;;;;;;10412120;28;20037;-49
2022/08/31 04:13:12;;;;;;;1.45;1.00;;;;;;;;;;10381681;28;20036;-53
2022/08/31 04:18:12;;;;;;;2.38;1.10;;;;;;;;;;10386371;28;20382;-57
2022/08/31 04:23:13;;;;;;;0.98;0.98;;;;;;;;;;10346651;28;20371;-58
2022/08/31 04:28:14;;;;;;;1.42;1.08;;;;;;;;;;10370195;28;20030;-51
2022/08/31 04:33:15;;;;;;;1.73;1.20;;;;;;;;;;10356544;28;20026;-57
2022/08/31 04:38:16;;;;;;;1.63;1.20;;;;;;;;;;10370062;28;20485;-58
2022/08/31 04:43:17;;;;;;;0.93;0.93;;;;;;;;;;10366991;28;20125;-58
2022/08/31 04:48:17;;;;;;;1.92;1.27;;;;;;;;;;10385563;28;20045;-59
2022/08/31 04:53:18;;;;;;;1.17;1.08;;;;;;;;;;10369497;28;20026;-54
2022/08/31 04:58:19;;;;;;;1.33;1.02;;;;;;;;;;10372051;28;20021;-58
2022/08/31 05:03:20;;;;;;;1.58;1.13;;;;;;;;;;10379668;28;20042;-57
2022/08/31 05:08:20;;;;;;;1.48;1.10;;;;;;;;;;10369618;28;20042;-58
2022/08/31 05:13:21;;;;;;;1.23;1.15;;;;;;;;;;10375740;28;20392;-58
2022/08/31 05:18:24;;;;;;;8.63;1.23;;;;;;;;;;10366474;28;20037;-59
2022/08/31 05:23:25;;;;;;;4.47;1.20;;;;;;;;;;10383104;28;20033;-59
2022/08/31 05:28:25;;;;;;;9.27;1.15;;;;;;;;;;10378001;28;20033;-59
2022/08/31 05:33:28;;;;;;;2.55;1.23;;;;;;;;;;10374735;28;20037;-59
2022/08/31 05:38:28;;;;;;;4.47;1.20;;;;;;;;;;10365850;28;20485;-59
2022/08/31 05:43:29;;;;;;;19.27;1.80;;;;;;;;;;10363221;28;20026;-60
2022/08/31 05:48:32;;;;;;;7.43;1.95;;;;;;;;;;10368469;28;20037;-61
2022/08/31 05:53:35;;;;;;;7.28;1.95;;;;;;;;;;10356086;28;20030;-54
2022/08/31 05:58:37;;;;;;;9.27;1.30;;;;;;;;;;10349546;28;20381;-53
2022/08/31 06:03:38;;;;;;;6.97;1.52;;;;;;;;;;10364212;28;20069;-55
2022/08/31 06:08:40;;;;;;;9.38;1.73;;;;;;;;;;10374170;28;20608;-58
2022/08/31 06:13:41;;;;;;;4.38;1.30;;;;;;;;;;10368597;28;20029;-57
2022/08/31 06:18:49;;;;;;;2.45;1.20;;;;;;;;;;10376904;28;20017;-56
2022/08/31 06:23:51;;;;;;;1.95;1.30;;;;;;;;;;10387759;28;20022;-57
2022/08/31 06:28:57;;;;;;;5.03;1.00;;;;;;;;;;10377091;28;20030;-57
2022/08/31 06:34:00;;;;;;;4.25;1.50;;;;;;;;;;10370889;28;20462;-56
2022/08/31 06:39:01;;;;;;;6.63;1.67;;;;;;;;;;10366400;28;20511;-57
2022/08/31 06:44:05;;;;;;;3.88;1.30;;;;;;;;;;10356229;28;20108;-58
2022/08/31 06:49:06;;;;;;;3.72;1.30;;;;;;;;;;10372535;28;20385;-57
2022/08/31 06:54:10;;;;;;;6.55;1.65;;;;;;;;;;10388266;28;20026;-57
2022/08/31 06:59:12;;;;;;;3.97;1.63;;;;;;;;;;10364008;28;20041;-57
2022/08/31 07:04:13;;;;;;;4.05;1.42;;;;;;;;;;10382942;28;20022;-57
2022/08/31 07:09:16;;;;;;;5.63;1.65;;;;;;;;;;10383789;28;20481;-57
2022/08/31 07:14:22;;;;;;;6.10;1.73;;;;;;;;;;10363650;28;20394;-55
2022/08/31 07:19:23;;;;;;;6.75;1.40;;;;;;;;;;10379063;28;20030;-57
2022/08/31 07:24:29;;;;;;;2.60;1.33;;;;;;;;;;10361011;28;20540;-57
2022/08/31 07:29:39;;;;;;;3.70;1.40;;;;;;;;;;10389092;28;20030;-58
2022/08/31 07:34:40;;;;;;;5.65;1.38;;;;;;;;;;10353375;28;20482;-57
2022/08/31 07:45:10;;;;;;;2.67;1.20;;;;;;;;;;10365559;28;20065;-57
2022/08/31 07:50:14;;;;;;;4.38;1.45;;;;;;;;;;10371044;28;20022;-57
2022/08/31 07:55:17;;;;;;;1.55;1.05;;;;;;;;;;10370919;28;20030;-57
2022/08/31 08:00:27;;;;;;;4.78;1.60;;;;;;;;;;10365088;28;20045;-57
2022/08/31 08:05:30;;;;;;;5.15;1.30;;;;;;;;;;10379036;28;20088;-57
2022/08/31 08:10:32;;;;;;;1.10;1.00;;;;;;;;;;10382215;28;20026;-57
2022/08/31 08:15:33;;;;;;;1.90;1.08;;;;;;;;;;10386354;28;20068;-57
2022/08/31 08:20:35;;;;;;;3.45;1.27;;;;;;;;;;10352140;28;20037;-57
2022/08/31 08:25:35;;;;;;;2.40;1.30;;;;;;;;;;10348413;28;20029;-57
2022/08/31 08:30:36;;;;;;;4.03;1.00;;;;;;;;;;10379724;28;20037;-57
2022/08/31 08:35:36;;;;;;;2.08;1.00;;;;;;;;;;10356681;28;20045;-57
2022/08/31 08:40:41;;;;;;;1.98;1.05;;;;;;;;;;10363050;28;20030;-58
2022/08/31 08:45:44;;;;;;;2.38;1.00;;;;;;;;;;10325355;28;20101;-57
2022/08/31 08:50:45;;;;;;;2.42;1.20;;;;;;;;;;10363423;28;20441;-57
2022/08/31 08:55:46;;;;;;;3.00;1.10;;;;;;;;;;10368065;28;20076;-57
2022/08/31 09:00:53;;;;;;;2.47;1.45;;;;;;;;;;10367633;28;20041;-56
2022/08/31 09:06:12;;;;;;;2.13;1.20;;;;;;;;;;10372019;28;20401;-57
2022/08/31 09:11:25;;;;;;;2.60;1.10;;;;;;;;;;10375938;28;20474;-57
2022/08/31 09:16:53;;;;;;;2.00;0.98;;;;;;;;;;10369018;28;20054;-58
2022/08/31 09:21:56;;;;;;;2.38;1.20;;;;;;;;;;10375539;28;20036;-57
2022/08/31 09:27:18;;;;;;;3.67;1.25;;;;;;;;;;10387926;28;20034;-58
2022/08/31 09:32:30;;;;;;;1.67;1.10;;;;;;;;;;10367529;28;20081;-57
2022/08/31 09:37:47;;;;;;;3.85;1.20;;;;;;;;;;10367773;28;20533;-57
2022/08/31 09:43:24;;;;;;;2.30;1.03;;;;;;;;;;10353978;28;20505;-57
2022/08/31 09:48:48;;;;;;;2.13;1.25;;;;;;;;;;10367905;28;20065;-57
2022/08/31 09:59:10;;;;;;;3.17;1.33;;;;;;;;;;10367381;28;20026;-57
2022/08/31 10:04:26;;;;;;;2.90;1.10;;;;;;;;;;10380706;28;20029;-58
2022/08/31 10:09:45;;;;;;;3.42;1.40;;;;;;;;;;10366498;28;20041;-56
2022/08/31 10:15:01;;;;;;;1.35;1.00;;;;;;;;;;10380794;28;20121;-57
2022/08/31 10:20:29;;;;;;;3.20;1.20;;;;;;;;;;10341766;28;20043;-57
2022/08/31 10:25:46;;;;;;;1.30;1.20;;;;;;;;;;10364092;28;20469;-57
2022/08/31 10:31:08;;;;;;;1.60;1.08;;;;;;;;;;10349394;28;20037;-56
2022/08/31 10:36:10;;;;;;;2.35;1.30;;;;;;;;;;10339056;28;20037;-57
2022/08/31 10:41:22;;;;;;;3.25;1.20;;;;;;;;;;10355137;28;20058;-57
2022/08/31 10:46:23;;;;;;;1.88;1.17;;;;;;;;;;10334997;28;20137;-59
2022/08/31 10:51:55;;;;;;;0.93;0.90;;;;;;;;;;10376643;28;20026;-56
2022/08/31 10:57:18;;;;;;;1.10;1.00;;;;;;;;;;10366302;28;20469;-57
2022/08/31 11:02:41;;;;;;;2.10;1.40;;;;;;;;;;10378767;28;20065;-57
2022/08/31 11:08:28;;;;;;;1.92;1.17;;;;;;;;;;10387877;28;20378;-57
2022/08/31 11:14:06;;;;;;;1.37;1.27;;;;;;;;;;10341741;28;20105;-58
2022/08/31 11:19:28;;;;;;;1.60;1.10;;;;;;;;;;10366614;28;20080;-57
2022/08/31 11:25:06;;;;;;;1.42;1.20;;;;;;;;;;10375182;28;20436;-57
2022/08/31 11:30:22;;;;;;;;;;;;;;;;;;10365696;28;20481;-57
2022/08/31 11:35:48;;;;;;;2.53;1.60;;;;;;;;;;10392340;28;20430;-56
2022/08/31 11:41:02;;;;;;;1.35;1.10;;;;;;;;;;10364280;28;20093;-57
2022/08/31 11:46:24;;;;;;;1.52;1.30;;;;;;;;;;10368483;28;20026;-57
2022/08/31 11:51:39;;;;;;;1.85;1.20;;;;;;;;;;10369525;28;20018;-57
2022/08/31 11:56:46;;;;;;;1.52;1.30;;;;;;;;;;10359141;28;20060;-57
2022/08/31 12:01:46;;;;;;;1.20;1.10;;;;;;;;;;10365685;28;20037;-57
2022/08/31 12:06:47;;;;;;;3.38;1.50;;;;;;;;;;10384179;28;20042;-55
2022/08/31 12:12:23;;;;;;;1.15;1.05;;;;;;;;;;10371283;28;20032;-57
2022/08/31 12:17:50;;;;;;;1.40;1.30;;;;;;;;;;10371618;28;20425;-57
2022/08/31 12:29:20;;;;;;;1.55;1.45;;;;;;;;;;10383094;28;20034;-57
2022/08/31 12:34:21;;;;;;;1.80;1.70;;;;;;;;;;10353693;28;20117;-57
2022/08/31 12:39:27;;;;;;;2.22;1.60;;;;;;;;;;10372008;28;20033;-58
2022/08/31 12:44:43;;;;;;;2.13;1.60;;;;;;;;;;10368014;28;20125;-58
2022/08/31 12:50:14;;;;;;;2.35;1.83;;;;;;;;;;10351838;28;20417;-57
2022/08/31 12:55:33;;;;;;;4.43;1.70;;;;;;;;;;10371752;28;20029;-57
2022/08/31 13:00:38;;;;;;;2.17;1.85;;;;;;;;;;10374930;28;20034;-57
2022/08/31 13:05:39;;;;;;;2.28;1.70;;;;;;;;;;10382644;28;20038;-57
2022/08/31 13:10:39;;;;;;;1.80;1.70;;;;;;;;;;10379400;28;20030;-58
2022/08/31 13:15:42;;;;;;;1.90;1.70;;;;;;;;;;10368922;28;20100;-57
2022/08/31 13:20:45;;;;;;;2.72;2.20;;;;;;;;;;10351549;28;20508;-56
2022/08/31 13:26:01;;;;;;;2.88;2.45;;;;;;;;;;10368124;28;20034;-59
2022/08/31 13:31:07;;;;;;;3.47;2.40;;;;;;;;;;10372957;28;20516;-57
2022/08/31 13:36:31;;;;;;;7.03;2.83;;;;;;;;;;10375026;28;20033;-57
2022/08/31 13:41:42;;;;;;;5.13;2.58;;;;;;;;;;10351106;28;20058;-58
2022/08/31 13:46:58;;;;;;;7.28;2.60;;;;;;;;;;10353294;28;20053;-57
2022/08/31 13:51:59;;;;;;;3.33;2.58;;;;;;;;;;10340367;28;20033;-57
2022/08/31 13:57:21;;;;;;;3.95;2.67;;;;;;;;;;10367129;28;20022;-57
2022/08/31 14:02:23;;;;;;;2.65;2.10;;;;;;;;;;10380034;28;20036;-57
2022/08/31 14:07:52;;;;;;;3.15;2.33;;;;;;;;;;10364616;28;20049;-57
2022/08/31 14:12:58;;;;;;;4.30;2.75;;;;;;;;;;10354832;28;20052;-58
2022/08/31 14:18:08;;;;;;;5.28;2.50;;;;;;;;;;10366782;28;20382;-57
2022/08/31 14:23:23;;;;;;;5.03;2.30;;;;;;;;;;10367678;28;20025;-58
2022/08/31 14:28:37;;;;;;;2.90;2.50;;;;;;;;;;10385232;28;20026;-57
2022/08/31 14:33:40;;;;;;;3.42;2.25;;;;;;;;;;10365683;28;20029;-58
2022/08/31 14:38:43;;;;;;;2.90;2.35;;;;;;;;;;10371330;28;20017;-57
2022/08/31 14:43:46;;;;;;;4.88;2.53;;;;;;;;;;10359212;28;20101;-58
2022/08/31 14:48:46;;;;;;;4.32;2.10;;;;;;;;;;10343329;28;20111;-57
2022/08/31 14:53:47;;;;;;;2.33;2.08;;;;;;;;;;10360639;28;20439;-58
2022/08/31 14:58:49;;;;;;;3.13;2.30;;;;;;;;;;10381324;28;20037;-58
2022/08/31 15:03:50;;;;;;;4.70;2.58;;;;;;;;;;10366510;28;20520;-57
2022/08/31 15:08:50;;;;;;;3.38;2.33;;;;;;;;;;10376946;28;20066;-58
2022/08/31 15:13:52;;;;;;;3.58;2.30;;;;;;;;;;10372830;28;20045;-58
2022/08/31 15:18:53;;;;;;;4.95;2.55;;;;;;;;;;10362817;28;20049;-58
2022/08/31 15:23:54;;;;;;;5.22;2.25;;;;;;;;;;10369654;28;20018;-57
2022/08/31 15:28:58;;;;;;;3.08;2.50;;;;;;;;;;10382724;28;20392;-58
2022/08/31 15:33:59;;;;;;;2.35;2.15;;;;;;;;;;10381892;28;20025;-58
2022/08/31 15:39:01;;;;;;;3.97;2.20;;;;;;;;;;10372990;28;20465;-57
2022/08/31 15:44:09;;;;;;;6.07;2.40;;;;;;;;;;10373976;28;20026;-58
2022/08/31 15:49:10;;;;;;;3.47;2.20;;;;;;;;;;10372690;28;20037;-58
2022/08/31 15:54:11;;;;;;;3.70;2.30;;;;;;;;;;10370816;28;20037;-58
2022/08/31 15:59:11;;;;;;;7.10;2.10;;;;;;;;;;10362037;28;20096;-58
2022/08/31 16:04:14;;;;;;;3.28;2.60;;;;;;;;;;10370495;28;20022;-58
2022/08/31 16:09:16;;;;;;;6.30;2.60;;;;;;;;;;10369538;28;20191;-58
2022/08/31 16:14:19;;;;;;;12.77;2.47;;;;;;;;;;10370041;28;20013;-58
2022/08/31 16:19:19;;;;;;;7.47;2.13;;;;;;;;;;10366735;28;20108;-58
2022/08/31 16:24:22;;;;;;;6.22;2.20;;;;;;;;;;10369476;28;20034;-58
2022/08/31 16:29:25;;;;;;;2.65;2.28;;;;;;;;;;10369308;28;20121;-57
2022/08/31 16:34:27;;;;;;;3.63;2.03;;;;;;;;;;10381843;28;20430;-58
2022/08/31 16:39:27;;;;;;;2.20;1.88;;;;;;;;;;10352818;28;20033;-58
2022/08/31 16:44:28;;;;;;;3.00;2.50;;;;;;;;;;10381131;28;20033;-59
2022/08/31 16:49:39;;;;;;;3.75;2.20;;;;;;;;;;10369890;28;20033;-58
2022/08/31 16:54:43;;;;;;;2.20;2.00;;;;;;;;;;10369260;28;20080;-57
2022/08/31 16:59:45;;;;;;;3.85;2.30;;;;;;;;;;10372387;28;20119;-58
2022/08/31 17:04:46;;;;;;;4.55;1.98;;;;;;;;;;10368070;28;20493;-57
2022/08/31 17:09:47;;;;;;;3.45;2.05;;;;;;;;;;10328935;28;20048;-58
2022/08/31 17:14:51;;;;;;;3.88;2.15;;;;;;;;;;10324396;28;20038;-58
2022/08/31 17:19:54;;;;;;;2.85;1.98;;;;;;;;;;10326358;28;20034;-57
2022/08/31 17:24:56;;;;;;;2.30;2.10;;;;;;;;;;10317543;28;20348;-56
2022/08/31 17:29:59;;;;;;;2.97;2.05;;;;;;;;;;10327713;28;20038;-56
2022/08/31 17:35:01;;;;;;;3.92;2.20;;;;;;;;;;10323249;28;20117;-56
2022/08/31 17:40:06;;;;;;;3.05;1.92;;;;;;;;;;10312039;28;20061;-57
2022/08/31 17:45:08;;;;;;;2.20;1.90;;;;;;;;;;10306966;28;20069;-57
2022/08/31 17:50:09;;;;;;;3.90;2.10;;;;;;;;;;10303152;28;20030;-57
2022/08/31 17:55:09;;;;;;;4.15;2.60;;;;;;;;;;10327034;28;20042;-57
2022/08/31 18:00:13;;;;;;;2.97;2.30;;;;;;;;;;10323708;28;20038;-57
2022/08/31 18:05:15;;;;;;;3.90;2.15;;;;;;;;;;10328855;28;20040;-57
2022/08/31 18:10:17;;;;;;;2.45;2.20;;;;;;;;;;10361442;28;20313;-58
2022/08/31 18:15:18;;;;;;;7.10;2.55;;;;;;;;;;10371215;28;20397;-58
2022/08/31 18:20:19;;;;;;;2.75;2.20;;;;;;;;;;10364488;28;20034;-55
2022/08/31 18:25:20;;;;;;;3.15;2.42;;;;;;;;;;10364036;28;20029;-54
2022/08/31 18:30:21;;;;;;;9.60;2.40;;;;;;;;;;10363350;28;20473;-54
2022/08/31 18:35:23;;;;;;;4.03;2.40;;;;;;;;;;10366068;28;20426;-57
2022/08/31 18:45:48;;;;;;;3.42;2.45;;;;;;;;;;10360699;28;20030;-51
2022/08/31 18:50:49;;;;;;;4.60;3.10;;;;;;;;;;10387122;28;20065;-56
2022/08/31 18:55:49;;;;;;;8.82;2.60;;;;;;;;;;10371011;28;20030;-53
2022/08/31 19:00:55;;;;;;;5.65;2.45;;;;;;;;;;10370945;28;20034;-54
2022/08/31 19:05:56;;;;;;;4.80;2.60;;;;;;;;;;10353095;28;20038;-54
2022/08/31 19:10:57;;;;;;;4.95;2.85;;;;;;;;;;10359805;28;20041;-54
2022/08/31 19:15:59;;;;;;;7.03;2.63;;;;;;;;;;10363766;28;20133;-57
2022/08/31 19:21:12;;;;;;;5.22;2.78;;;;;;;;;;10365216;28;20046;-51
2022/08/31 19:26:25;;;;;;;3.30;2.30;;;;;;;;;;10368031;28;20057;-54
2022/08/31 19:31:28;;;;;;;2.80;2.40;;;;;;;;;;10361557;28;20112;-52
2022/08/31 19:36:38;;;;;;;4.43;2.88;;;;;;;;;;10370876;28;20188;-52
2022/08/31 19:41:43;;;;;;;4.10;2.40;;;;;;;;;;10361764;28;20466;-56
2022/08/31 19:46:45;;;;;;;3.22;2.65;;;;;;;;;;10375746;28;20037;-55
2022/08/31 19:51:49;;;;;;;4.80;2.80;;;;;;;;;;10377616;28;20563;-57
2022/08/31 19:56:51;;;;;;;3.25;2.20;;;;;;;;;;10356648;28;20030;-60
2022/08/31 20:01:55;;;;;;;3.72;2.30;;;;;;;;;;10369185;28;20389;-59
2022/08/31 20:06:56;;;;;;;2.55;2.35;;;;;;;;;;10389175;28;20041;-59
2022/08/31 20:11:58;;;;;;;3.53;2.58;;;;;;;;;;10371037;28;20022;-59
2022/08/31 20:17:00;;;;;;;7.15;2.20;;;;;;;;;;10371875;28;20034;-59
2022/08/31 20:22:06;;;;;;;3.38;2.47;;;;;;;;;;10353482;28;20115;-59
2022/08/31 20:27:09;;;;;;;7.32;2.45;;;;;;;;;;10371620;28;20396;-58
2022/08/31 20:32:09;;;;;;;7.55;2.85;;;;;;;;;;10373674;28;20021;-74
2022/08/31 20:37:11;;;;;;;5.88;2.63;;;;;;;;;;10373247;28;20025;-72
2022/08/31 20:42:12;;;;;;;9.43;3.00;;;;;;;;;;10379796;28;20087;-70
2022/08/31 20:52:33;;;;;;;10.80;2.90;;;;;;;;;;10383653;28;20065;-77
2022/08/31 20:57:39;;;;;;;7.03;3.17;;;;;;;;;;10367107;28;20615;-79
2022/08/31 21:02:40;;;;;;;4.93;3.20;;;;;;;;;;10373904;28;20040;-69
2022/08/31 21:07:41;;;;;;;15.20;3.10;;;;;;;;;;10391989;28;20440;-63
2022/08/31 21:12:41;;;;;;;9.15;2.60;;;;;;;;;;10379332;28;20052;-62
2022/08/31 21:17:42;;;;;;;13.10;2.65;;;;;;;;;;10393254;28;20034;-62
2022/08/31 21:22:43;;;;;;;8.63;2.80;;;;;;;;;;10356884;28;20045;-62
2022/08/31 21:27:45;;;;;;;4.22;2.63;;;;;;;;;;10368084;28;20038;-62
2022/08/31 21:32:46;;;;;;;4.10;2.65;;;;;;;;;;10354132;28;20025;-62
2022/08/31 21:37:47;;;;;;;4.50;2.67;;;;;;;;;;10369876;28;20033;-63
2022/08/31 21:42:48;;;;;;;4.45;2.40;;;;;;;;;;10364291;28;20037;-62
2022/08/31 21:47:49;;;;;;;3.30;2.33;;;;;;;;;;10366647;28;20065;-61
2022/08/31 21:52:51;;;;;;;5.43;2.40;;;;;;;;;;10372550;28;20053;-61
2022/08/31 21:57:52;;;;;;;9.52;2.78;;;;;;;;;;10354123;28;20065;-62
2022/08/31 22:02:53;;;;;;;3.25;2.30;;;;;;;;;;10372848;28;20044;-61
2022/08/31 22:07:54;;;;;;;6.28;2.30;;;;;;;;;;10373852;28;20042;-61
2022/08/31 22:12:54;;;;;;;9.32;2.25;;;;;;;;;;10376425;28;20489;-62
2022/08/31 22:17:55;;;;;;;3.50;2.17;;;;;;;;;;10357813;28;20482;-62
2022/08/31 22:22:56;;;;;;;9.90;2.50;;;;;;;;;;10373519;28;20037;-62
2022/08/31 22:27:57;;;;;;;3.85;2.28;;;;;;;;;;10364816;28;20021;-62
2022/08/31 22:32:57;;;;;;;4.32;2.20;;;;;;;;;;10364148;28;20044;-62
2022/08/31 22:37:58;;;;;;;5.03;2.20;;;;;;;;;;10364259;28;20034;-62
2022/08/31 22:42:58;;;;;;;3.85;2.15;;;;;;;;;;10366222;28;20049;-61
2022/08/31 22:47:59;;;;;;;5.10;2.00;;;;;;;;;;10364400;28;20030;-60
2022/08/31 22:53:00;;;;;;;6.05;2.40;;;;;;;;;;10363860;28;20045;-60
2022/08/31 22:58:00;;;;;;;4.97;2.13;;;;;;;;;;10366330;28;20022;-60
2022/08/31 23:03:01;;;;;;;3.85;2.10;;;;;;;;;;10370986;28;20043;-60
2022/08/31 23:08:02;;;;;;;4.40;1.80;;;;;;;;;;10393970;28;20410;-60
2022/08/31 23:13:03;;;;;;;2.13;1.92;;;;;;;;;;10365138;28;20036;-61
2022/08/31 23:18:08;;;;;;;3.80;2.42;;;;;;;;;;10372505;28;20072;-60
2022/08/31 23:23:09;;;;;;;10.23;2.30;;;;;;;;;;10375661;28;20034;-61
2022/08/31 23:28:11;;;;;;;8.32;2.40;;;;;;;;;;10379358;28;20385;-61
2022/08/31 23:33:11;;;;;;;4.30;2.10;;;;;;;;;;10358349;28;20038;-61
2022/08/31 23:38:12;;;;;;;7.05;1.70;;;;;;;;;;10372309;28;20394;-62
2022/08/31 23:43:13;;;;;;;4.50;2.22;;;;;;;;;;10357592;28;20033;-60
2022/08/31 23:48:13;;;;;;;4.75;1.90;;;;;;;;;;10358849;28;20033;-58
2022/08/31 23:53:16;;;;;;;4.90;1.70;;;;;;;;;;10369668;28;20029;-61
2022/08/31 23:58:18;;;;;;;5.07;2.15;;;;;;;;;;10370482;28;20022;-61
